createdAt,value
2019-05-31T00:02:23.337Z,15.51
2019-05-31T00:04:53.163Z,15.48
2019-05-31T00:07:21.775Z,15.49
2019-05-31T00:09:52.410Z,15.52
2019-05-31T00:12:20.371Z,15.54
2019-05-31T00:14:48.784Z,15.54
2019-05-31T00:17:17.222Z,15.54
2019-05-31T00:19:45.633Z,15.53
2019-05-31T00:22:14.044Z,15.53
2019-05-31T00:24:42.554Z,15.52
2019-05-31T00:27:10.961Z,15.50
2019-05-31T00:29:39.400Z,15.48
2019-05-31T00:32:07.808Z,15.43
2019-05-31T00:34:36.244Z,15.38
2019-05-31T00:37:04.731Z,15.34
2019-05-31T00:39:33.168Z,15.31
2019-05-31T00:42:01.582Z,15.25
2019-05-31T00:44:32.874Z,15.18
2019-05-31T00:47:01.573Z,15.14
2019-05-31T00:49:30.181Z,15.12
2019-05-31T00:51:59.867Z,15.10
2019-05-31T00:54:28.442Z,15.08
2019-05-31T00:56:56.913Z,15.06
2019-05-31T00:59:25.352Z,15.02
2019-05-31T01:01:53.776Z,14.99
2019-05-31T01:04:22.205Z,14.95
2019-05-31T01:06:50.614Z,14.94
2019-05-31T01:09:19.119Z,14.92
2019-05-31T01:11:47.535Z,14.91
2019-05-31T01:14:15.967Z,14.87
2019-05-31T01:16:44.378Z,14.83
2019-05-31T01:19:12.807Z,14.80
2019-05-31T01:21:41.220Z,14.73
2019-05-31T01:24:09.633Z,14.67
2019-05-31T01:26:38.070Z,14.64
2019-05-31T01:29:07.702Z,14.60
2019-05-31T01:31:36.303Z,14.58
2019-05-31T01:34:06.264Z,14.57
2019-05-31T01:36:34.909Z,14.56
2019-05-31T01:39:04.386Z,14.58
2019-05-31T01:41:32.941Z,14.63
2019-05-31T01:44:01.352Z,14.66
2019-05-31T01:46:29.794Z,14.69
2019-05-31T01:48:58.207Z,14.69
2019-05-31T01:51:26.644Z,14.73
2019-05-31T01:53:55.061Z,14.71
2019-05-31T01:56:23.496Z,14.73
2019-05-31T01:58:51.909Z,14.74
2019-05-31T02:01:20.348Z,14.76
2019-05-31T02:03:48.791Z,14.78
2019-05-31T02:06:19.034Z,14.79
2019-05-31T02:08:47.355Z,14.79
2019-05-31T02:11:17.025Z,14.81
2019-05-31T02:13:45.601Z,14.85
2019-05-31T02:16:14.096Z,14.87
2019-05-31T02:18:42.513Z,14.89
2019-05-31T02:21:13.260Z,14.92
2019-05-31T02:23:41.099Z,14.93
2019-05-31T02:26:09.537Z,14.96
2019-05-31T02:28:37.952Z,15.01
2019-05-31T02:31:07.911Z,15.02
2019-05-31T02:33:36.557Z,15.05
2019-05-31T02:36:06.450Z,15.06
2019-05-31T02:38:35.060Z,15.07
2019-05-31T02:41:03.577Z,15.06
2019-05-31T02:43:32.055Z,15.07
2019-05-31T02:46:00.502Z,15.06
2019-05-31T02:48:28.904Z,15.03
2019-05-31T02:50:57.417Z,15.02
2019-05-31T02:53:25.905Z,15.01
2019-05-31T02:55:55.449Z,14.99
2019-05-31T02:58:24.153Z,14.98
2019-05-31T03:00:52.634Z,14.99
2019-05-31T03:03:22.115Z,15.01
2019-05-31T03:05:51.464Z,15.03
2019-05-31T03:08:24.299Z,15.09
2019-05-31T03:10:53.076Z,15.10
2019-05-31T03:13:22.092Z,15.11
2019-05-31T03:16:06.324Z,15.12
2019-05-31T03:18:22.333Z,15.15
2019-05-31T03:20:50.810Z,15.17
2019-05-31T03:23:20.992Z,15.19
2019-05-31T03:25:49.412Z,15.19
2019-05-31T03:28:19.631Z,15.13
2019-05-31T03:30:47.991Z,15.07
2019-05-31T03:33:20.404Z,15.05
2019-05-31T03:35:46.576Z,15.03
2019-05-31T03:38:16.606Z,15.02
2019-05-31T03:40:45.297Z,15.02
2019-05-31T03:43:14.898Z,14.99
2019-05-31T03:45:43.881Z,14.98
2019-05-31T03:48:12.326Z,14.96
2019-05-31T03:50:41.282Z,14.95
2019-05-31T03:53:09.793Z,14.95
2019-05-31T03:55:38.231Z,14.94
2019-05-31T03:58:06.713Z,14.93
2019-05-31T04:00:49.928Z,14.97
2019-05-31T04:03:18.924Z,14.99
2019-05-31T04:05:47.830Z,15.01
2019-05-31T04:08:18.012Z,15.02
2019-05-31T04:10:46.482Z,15.04
2019-05-31T04:13:15.950Z,15.09
2019-05-31T04:15:45.527Z,15.14
2019-05-31T04:18:14.334Z,15.19
2019-05-31T04:20:42.757Z,15.21
2019-05-31T04:23:11.204Z,15.27
2019-05-31T04:25:39.610Z,15.31
2019-05-31T04:28:08.051Z,15.36
2019-05-31T04:30:36.533Z,15.39
2019-05-31T04:33:05.208Z,15.43
2019-05-31T04:35:33.627Z,15.47
2019-05-31T04:38:02.139Z,15.50
2019-05-31T04:40:30.614Z,15.49
2019-05-31T04:42:59.027Z,15.53
2019-05-31T04:45:27.476Z,15.57
2019-05-31T04:47:55.870Z,15.63
2019-05-31T04:50:25.749Z,15.65
2019-05-31T04:52:54.443Z,15.66
2019-05-31T04:55:24.378Z,15.67
2019-05-31T04:57:52.983Z,15.70
2019-05-31T05:00:24.015Z,15.74
2019-05-31T05:02:51.693Z,15.77
2019-05-31T05:05:20.765Z,15.84
2019-05-31T05:07:49.597Z,15.91
2019-05-31T05:10:18.729Z,15.95
2019-05-31T05:12:47.398Z,16.00
2019-05-31T05:15:16.747Z,16.08
2019-05-31T05:17:45.364Z,16.16
2019-05-31T05:20:14.071Z,16.22
2019-05-31T05:22:42.562Z,16.30
2019-05-31T05:25:11.163Z,16.38
2019-05-31T05:27:39.579Z,16.49
2019-05-31T05:30:08.986Z,16.66
2019-05-31T05:32:37.402Z,16.76
2019-05-31T05:35:07.878Z,16.86
2019-05-31T05:37:36.287Z,16.93
2019-05-31T05:40:06.695Z,16.95
2019-05-31T05:42:35.177Z,16.97
2019-05-31T05:45:05.489Z,16.97
2019-05-31T05:47:46.833Z,16.88
2019-05-31T05:50:08.623Z,16.86
2019-05-31T05:52:37.109Z,16.89
2019-05-31T05:55:06.888Z,16.87
2019-05-31T05:57:35.308Z,16.87
2019-05-31T06:00:05.983Z,16.88
2019-05-31T06:02:34.405Z,16.99
2019-05-31T06:05:02.907Z,17.12
2019-05-31T06:07:32.435Z,17.29
2019-05-31T06:10:01.039Z,17.43
2019-05-31T06:12:29.448Z,17.56
2019-05-31T06:14:57.879Z,17.72
2019-05-31T06:17:26.293Z,17.83
2019-05-31T06:19:54.735Z,17.89
2019-05-31T06:22:24.328Z,17.93
2019-05-31T06:24:52.961Z,17.97
2019-05-31T06:27:21.381Z,18.02
2019-05-31T06:29:52.836Z,18.02
2019-05-31T06:32:19.954Z,18.13
2019-05-31T06:34:48.409Z,18.24
2019-05-31T06:37:16.887Z,18.27
2019-05-31T06:39:45.300Z,18.20
2019-05-31T06:42:13.741Z,18.23
2019-05-31T06:44:42.157Z,18.24
2019-05-31T06:47:10.601Z,18.22
2019-05-31T06:49:39.010Z,18.27
2019-05-31T06:52:07.455Z,18.34
2019-05-31T06:54:38.079Z,18.43
2019-05-31T06:57:06.099Z,18.43
2019-05-31T06:59:34.579Z,18.37
2019-05-31T07:02:03.020Z,18.25
2019-05-31T07:04:32.859Z,18.35
2019-05-31T07:07:01.462Z,18.49
2019-05-31T07:09:32.147Z,18.75
2019-05-31T07:12:13.937Z,18.97
2019-05-31T07:14:30.173Z,19.06
2019-05-31T07:16:58.618Z,19.28
2019-05-31T07:19:28.110Z,19.35
2019-05-31T07:21:56.667Z,19.29
2019-05-31T07:24:25.072Z,19.30
2019-05-31T07:27:00.639Z,19.32
2019-05-31T07:29:33.406Z,19.34
2019-05-31T07:31:53.813Z,19.32
2019-05-31T07:34:22.229Z,19.24
2019-05-31T07:36:50.671Z,19.19
2019-05-31T07:39:19.084Z,19.14
2019-05-31T07:41:47.540Z,19.23
2019-05-31T07:44:15.953Z,19.49
2019-05-31T07:47:01.817Z,19.97
2019-05-31T07:49:14.526Z,20.40
2019-05-31T07:51:43.008Z,20.61
2019-05-31T07:54:11.446Z,20.82
2019-05-31T07:56:40.911Z,20.87
2019-05-31T07:59:09.481Z,20.94
2019-05-31T08:01:37.902Z,21.05
2019-05-31T08:04:06.345Z,21.00
2019-05-31T08:06:38.421Z,20.95
2019-05-31T08:09:07.464Z,20.94
2019-05-31T08:11:35.879Z,20.92
2019-05-31T08:14:04.322Z,21.09
2019-05-31T08:16:34.009Z,21.14
2019-05-31T08:19:15.390Z,21.09
2019-05-31T08:21:34.449Z,21.25
2019-05-31T08:24:02.964Z,21.56
2019-05-31T08:26:32.100Z,21.67
2019-05-31T08:29:00.689Z,21.75
2019-05-31T08:31:30.204Z,22.00
2019-05-31T08:33:58.723Z,22.45
2019-05-31T08:36:28.403Z,22.75
2019-05-31T08:38:56.955Z,23.02
2019-05-31T08:41:26.464Z,23.08
2019-05-31T08:43:55.050Z,23.02
2019-05-31T08:46:23.462Z,22.46
2019-05-31T08:48:51.903Z,22.19
2019-05-31T08:51:20.321Z,22.17
2019-05-31T08:53:48.764Z,22.57
2019-05-31T08:56:17.176Z,22.96
2019-05-31T08:58:45.614Z,23.19
2019-05-31T09:01:14.310Z,23.15
2019-05-31T09:03:44.802Z,22.83
2019-05-31T09:06:13.224Z,22.46
2019-05-31T09:08:42.476Z,22.58
2019-05-31T09:11:10.891Z,22.85
2019-05-31T09:13:39.700Z,22.60
2019-05-31T09:16:08.213Z,22.72
2019-05-31T09:18:36.810Z,23.10
2019-05-31T09:21:05.235Z,23.29
2019-05-31T09:23:35.319Z,23.49
2019-05-31T09:26:03.960Z,23.68
2019-05-31T09:28:32.600Z,23.82
2019-05-31T09:31:01.088Z,23.60
2019-05-31T09:33:29.485Z,23.18
2019-05-31T09:35:57.920Z,23.06
2019-05-31T09:38:26.343Z,23.10
2019-05-31T09:40:54.770Z,23.05
2019-05-31T09:43:23.192Z,22.97
2019-05-31T09:45:51.626Z,22.89
2019-05-31T09:48:20.049Z,23.02
2019-05-31T09:50:48.468Z,23.51
2019-05-31T09:53:17.120Z,23.76
2019-05-31T09:55:46.072Z,24.28
2019-05-31T09:58:14.481Z,24.50
2019-05-31T10:00:43.047Z,24.58
2019-05-31T10:03:11.460Z,24.48
2019-05-31T10:05:40.280Z,23.96
2019-05-31T10:08:10.425Z,23.47
2019-05-31T10:10:41.255Z,23.31
2019-05-31T10:13:09.291Z,23.70
2019-05-31T10:15:39.282Z,23.97
2019-05-31T10:18:07.927Z,23.77
2019-05-31T10:20:37.764Z,23.61
2019-05-31T10:23:06.488Z,23.27
2019-05-31T10:25:36.688Z,22.78
2019-05-31T10:28:05.498Z,22.66
2019-05-31T10:30:34.632Z,22.81
2019-05-31T10:33:04.358Z,23.21
2019-05-31T10:35:33.650Z,23.57
2019-05-31T10:38:02.928Z,23.77
2019-05-31T10:40:31.331Z,23.69
2019-05-31T10:42:59.764Z,23.24
2019-05-31T10:45:28.242Z,23.34
2019-05-31T10:47:56.669Z,23.62
2019-05-31T10:50:25.142Z,23.40
2019-05-31T10:52:53.569Z,23.04
2019-05-31T10:55:23.448Z,22.94
2019-05-31T10:57:51.888Z,23.13
2019-05-31T11:00:20.560Z,23.06
2019-05-31T11:02:48.990Z,23.44
2019-05-31T11:05:19.181Z,23.62
2019-05-31T11:07:47.832Z,23.69
2019-05-31T11:10:16.671Z,23.66
2019-05-31T11:12:45.582Z,23.59
2019-05-31T11:15:16.099Z,23.85
2019-05-31T11:17:49.734Z,24.25
2019-05-31T11:20:15.234Z,24.37
2019-05-31T11:22:44.264Z,24.54
2019-05-31T11:25:13.115Z,24.63
2019-05-31T11:27:42.148Z,24.40
2019-05-31T11:30:15.528Z,24.03
2019-05-31T11:32:48.329Z,23.61
2019-05-31T11:35:15.739Z,23.47
2019-05-31T11:37:46.977Z,23.55
2019-05-31T11:40:14.602Z,23.83
2019-05-31T11:43:04.304Z,24.03
2019-05-31T11:45:13.527Z,24.17
2019-05-31T11:47:46.439Z,24.64
2019-05-31T11:50:13.685Z,25.15
2019-05-31T11:52:43.312Z,25.19
2019-05-31T11:55:27.648Z,25.26
2019-05-31T11:57:43.562Z,25.27
2019-05-31T12:00:13.919Z,25.66
2019-05-31T12:02:46.510Z,25.94
2019-05-31T12:05:12.636Z,25.92
2019-05-31T12:07:42.316Z,25.33
2019-05-31T12:10:10.998Z,24.59
2019-05-31T12:12:40.961Z,24.11
2019-05-31T12:15:09.629Z,23.64
2019-05-31T12:17:38.441Z,23.30
2019-05-31T12:20:15.208Z,22.85
2019-05-31T12:22:38.619Z,22.44
2019-05-31T12:25:10.390Z,22.05
2019-05-31T12:27:38.922Z,21.87
2019-05-31T12:30:20.958Z,21.91
2019-05-31T12:32:40.057Z,21.89
2019-05-31T12:35:08.771Z,21.84
2019-05-31T12:37:37.180Z,21.63
2019-05-31T12:40:08.768Z,21.39
2019-05-31T12:42:37.202Z,21.24
2019-05-31T12:45:09.465Z,21.09
2019-05-31T12:47:38.046Z,21.00
2019-05-31T12:50:07.045Z,21.04
2019-05-31T12:52:35.685Z,21.19
2019-05-31T12:55:08.882Z,21.31
2019-05-31T12:57:37.292Z,21.40
2019-05-31T13:00:13.388Z,21.48
2019-05-31T13:02:46.467Z,21.74
2019-05-31T13:05:12.169Z,22.13
2019-05-31T13:07:41.798Z,22.67
2019-05-31T13:10:16.329Z,23.26
2019-05-31T13:12:42.883Z,23.40
2019-05-31T13:15:12.720Z,23.26
2019-05-31T13:17:41.117Z,23.10
2019-05-31T13:20:11.159Z,22.76
2019-05-31T13:22:39.565Z,22.60
2019-05-31T13:25:08.640Z,22.49
2019-05-31T13:27:38.488Z,22.30
2019-05-31T13:30:09.963Z,22.13
2019-05-31T13:32:38.454Z,22.05
2019-05-31T13:35:08.531Z,22.04
2019-05-31T13:37:36.941Z,22.08
2019-05-31T13:40:09.159Z,22.17
2019-05-31T13:42:37.740Z,22.29
2019-05-31T13:45:08.891Z,22.34
2019-05-31T13:47:37.370Z,22.38
2019-05-31T13:50:07.158Z,22.31
2019-05-31T13:52:41.153Z,22.11
2019-05-31T13:55:06.631Z,22.07
2019-05-31T13:57:35.062Z,22.17
2019-05-31T14:00:05.390Z,22.27
2019-05-31T14:02:33.826Z,22.34
2019-05-31T14:05:02.232Z,22.04
2019-05-31T14:07:30.667Z,21.79
2019-05-31T14:10:03.429Z,21.70
2019-05-31T14:12:29.328Z,21.60
2019-05-31T14:14:58.763Z,21.37
2019-05-31T14:17:27.491Z,21.19
2019-05-31T14:19:56.475Z,21.14
2019-05-31T14:22:34.179Z,21.06
2019-05-31T14:24:56.901Z,20.93
2019-05-31T14:27:25.445Z,20.92
2019-05-31T14:29:53.928Z,21.10
2019-05-31T14:32:22.364Z,21.39
2019-05-31T14:34:51.990Z,21.69
2019-05-31T14:37:20.592Z,21.88
2019-05-31T14:39:50.210Z,22.07
2019-05-31T14:42:19.378Z,22.23
2019-05-31T14:44:47.784Z,22.42
2019-05-31T14:47:16.220Z,22.44
2019-05-31T14:49:44.628Z,22.79
2019-05-31T14:52:13.065Z,23.27
2019-05-31T14:54:41.470Z,23.57
2019-05-31T14:57:09.909Z,23.30
2019-05-31T14:59:38.315Z,23.24
2019-05-31T15:02:06.816Z,23.46
2019-05-31T15:04:35.215Z,23.55
2019-05-31T15:07:03.692Z,23.95
2019-05-31T15:09:32.190Z,24.18
2019-05-31T15:12:02.485Z,24.02
2019-05-31T15:14:30.824Z,23.62
2019-05-31T15:16:59.829Z,23.25
2019-05-31T15:19:29.585Z,23.04
2019-05-31T15:21:59.287Z,22.73
2019-05-31T15:24:27.805Z,22.63
2019-05-31T15:26:57.994Z,22.61
2019-05-31T15:29:26.372Z,22.77
2019-05-31T15:32:17.515Z,22.95
2019-05-31T15:35:02.586Z,23.24
2019-05-31T15:37:31.250Z,23.55
2019-05-31T15:40:02.848Z,23.73
2019-05-31T15:42:46.567Z,24.04
2019-05-31T15:45:15.155Z,24.08
2019-05-31T15:47:43.577Z,23.99
2019-05-31T15:50:12.321Z,23.65
2019-05-31T15:52:40.731Z,23.54
2019-05-31T15:55:17.751Z,23.43
2019-05-31T15:57:39.381Z,23.29
2019-05-31T16:00:09.246Z,23.17
2019-05-31T16:02:37.680Z,23.01
2019-05-31T16:05:06.989Z,22.82
2019-05-31T16:07:35.399Z,22.71
2019-05-31T16:10:07.155Z,22.71
2019-05-31T16:12:35.833Z,22.90
2019-05-31T16:15:06.919Z,23.23
2019-05-31T16:17:35.455Z,23.31
2019-05-31T16:20:05.919Z,23.17
2019-05-31T16:22:34.325Z,23.20
2019-05-31T16:25:03.540Z,23.22
2019-05-31T16:27:32.044Z,23.12
2019-05-31T16:30:00.472Z,23.26
2019-05-31T16:32:28.883Z,23.06
2019-05-31T16:34:57.984Z,22.79
2019-05-31T16:37:26.511Z,22.62
2019-05-31T16:39:54.924Z,22.60
2019-05-31T16:42:23.332Z,22.71
2019-05-31T16:44:51.759Z,22.68
2019-05-31T16:47:20.169Z,22.77
2019-05-31T16:49:56.959Z,22.90
2019-05-31T16:52:18.729Z,22.88
2019-05-31T16:54:47.160Z,22.88
2019-05-31T16:57:15.582Z,22.83
2019-05-31T16:59:44.003Z,22.92
2019-05-31T17:02:12.435Z,22.98
2019-05-31T17:04:40.864Z,22.67
2019-05-31T17:07:09.969Z,22.10
2019-05-31T17:09:38.541Z,21.77
2019-05-31T17:12:08.161Z,21.70
2019-05-31T17:14:36.760Z,21.79
2019-05-31T17:17:06.106Z,21.85
2019-05-31T17:19:34.633Z,22.06
2019-05-31T17:22:03.074Z,22.14
2019-05-31T17:24:40.751Z,22.01
2019-05-31T17:27:02.469Z,21.88
2019-05-31T17:29:31.006Z,21.84
2019-05-31T17:31:59.501Z,21.75
2019-05-31T17:34:41.798Z,21.67
2019-05-31T17:36:58.088Z,21.66
2019-05-31T17:39:26.533Z,21.77
2019-05-31T17:41:54.969Z,22.15
2019-05-31T17:44:23.383Z,22.38
2019-05-31T17:46:51.808Z,22.66
2019-05-31T17:49:20.210Z,22.79
2019-05-31T17:51:48.640Z,22.77
2019-05-31T17:54:17.213Z,22.57
2019-05-31T17:56:45.639Z,21.98
2019-05-31T17:59:15.001Z,21.61
2019-05-31T18:01:43.556Z,21.48
2019-05-31T18:04:11.961Z,21.36
2019-05-31T18:06:40.463Z,21.05
2019-05-31T18:09:10.140Z,20.89
2019-05-31T18:11:38.674Z,20.93
2019-05-31T18:14:07.133Z,21.10
2019-05-31T18:16:35.560Z,21.08
2019-05-31T18:19:03.961Z,20.91
2019-05-31T18:21:32.404Z,20.74
2019-05-31T18:24:00.884Z,20.59
2019-05-31T18:26:29.308Z,20.46
2019-05-31T18:28:57.711Z,20.40
2019-05-31T18:31:26.137Z,20.33
2019-05-31T18:33:54.604Z,20.24
2019-05-31T18:36:23.041Z,20.12
2019-05-31T18:38:51.451Z,20.01
2019-05-31T18:41:19.949Z,19.88
2019-05-31T18:43:48.369Z,19.79
2019-05-31T18:46:17.176Z,19.73
2019-05-31T18:48:46.976Z,19.72
2019-05-31T18:51:16.004Z,19.73
2019-05-31T18:53:44.512Z,19.70
2019-05-31T18:56:13.506Z,19.67
2019-05-31T18:58:42.032Z,19.60
2019-05-31T19:01:10.905Z,19.53
2019-05-31T19:03:39.319Z,19.44
2019-05-31T19:06:07.753Z,19.33
2019-05-31T19:08:36.235Z,19.23
2019-05-31T19:11:04.766Z,19.12
2019-05-31T19:13:34.198Z,19.03
2019-05-31T19:16:02.865Z,18.96
2019-05-31T19:18:31.293Z,18.87
2019-05-31T19:21:01.750Z,18.77
2019-05-31T19:23:29.865Z,18.67
2019-05-31T19:25:58.277Z,18.55
2019-05-31T19:28:26.715Z,18.45
2019-05-31T19:30:55.198Z,18.36
2019-05-31T19:33:23.704Z,18.28
2019-05-31T19:35:52.179Z,18.21
2019-05-31T19:38:20.680Z,18.19
2019-05-31T19:40:49.157Z,18.11
2019-05-31T19:43:18.858Z,18.02
2019-05-31T19:45:47.493Z,17.99
2019-05-31T19:48:17.057Z,17.95
2019-05-31T19:50:45.682Z,17.85
2019-05-31T19:53:15.663Z,17.77
2019-05-31T19:55:44.306Z,17.69
2019-05-31T19:58:12.736Z,17.54
2019-05-31T20:00:41.417Z,17.40
2019-05-31T20:03:10.358Z,17.29
2019-05-31T20:05:38.773Z,17.13
2019-05-31T20:08:07.275Z,17.00
2019-05-31T20:10:35.684Z,16.96
2019-05-31T20:13:04.487Z,16.98
2019-05-31T20:15:33.036Z,17.01
2019-05-31T20:18:01.536Z,17.02
2019-05-31T20:20:29.938Z,17.02
2019-05-31T20:22:58.369Z,17.00
2019-05-31T20:27:56.960Z,16.97
2019-05-31T20:30:02.220Z,16.98
2019-05-31T20:35:40.044Z,16.69
2019-05-31T20:37:55.854Z,16.62
2019-05-31T20:40:29.727Z,16.50
2019-05-31T20:42:02.618Z,16.90
2019-05-31T20:42:30.703Z,16.82
2019-05-31T20:45:24.972Z,16.43
2019-05-31T20:47:53.487Z,16.34
2019-05-31T20:50:23.112Z,16.21
2019-05-31T20:52:51.687Z,16.08
2019-05-31T20:55:20.137Z,16.07
2019-05-31T20:57:48.647Z,16.10
2019-05-31T21:00:17.588Z,16.09
2019-05-31T21:02:45.989Z,16.02
2019-05-31T21:05:14.572Z,15.82
2019-05-31T21:07:42.976Z,15.76
2019-05-31T21:10:12.651Z,15.77
2019-05-31T21:12:41.125Z,15.78
2019-05-31T21:15:09.810Z,15.71
2019-05-31T21:17:38.227Z,15.71
2019-05-31T21:20:08.277Z,15.71
2019-05-31T21:22:36.686Z,15.71
2019-05-31T21:25:06.935Z,15.70
2019-05-31T21:27:35.345Z,15.62
2019-05-31T21:30:05.212Z,15.60
2019-05-31T21:32:33.630Z,15.62
2019-05-31T21:35:02.079Z,15.69
2019-05-31T21:37:30.970Z,15.72
2019-05-31T21:39:59.503Z,15.70
2019-05-31T21:42:29.194Z,15.65
2019-05-31T21:44:57.847Z,15.60
2019-05-31T21:47:27.534Z,15.61
2019-05-31T21:49:56.148Z,15.53
2019-05-31T21:52:25.985Z,15.46
2019-05-31T21:54:54.607Z,15.44
2019-05-31T21:57:23.020Z,15.35
2019-05-31T21:59:51.423Z,15.14
2019-05-31T22:02:19.936Z,15.03
2019-05-31T22:04:48.348Z,14.98
2019-05-31T22:07:16.927Z,14.92
2019-05-31T22:09:45.344Z,14.87
2019-05-31T22:12:13.778Z,14.83
2019-05-31T22:14:42.190Z,14.79
2019-05-31T22:17:10.625Z,14.75
2019-05-31T22:19:39.039Z,14.76
2019-05-31T22:22:07.553Z,14.82
2019-05-31T22:24:38.187Z,14.76
2019-05-31T22:27:06.196Z,14.66
2019-05-31T22:29:35.119Z,14.55
2019-05-31T22:32:08.375Z,14.50
2019-05-31T22:34:37.784Z,14.50
2019-05-31T22:37:06.302Z,14.39
2019-05-31T22:39:34.721Z,14.36
2019-05-31T22:42:03.170Z,14.33
2019-05-31T22:44:32.637Z,14.29
2019-05-31T22:47:01.297Z,14.26
2019-05-31T22:49:31.897Z,14.19
2019-05-31T22:51:59.867Z,14.13
2019-05-31T22:54:28.279Z,14.09
2019-05-31T22:56:56.728Z,14.05
2019-05-31T22:59:36.561Z,14.03
2019-05-31T23:01:55.375Z,14.05
2019-05-31T23:04:23.794Z,14.10
2019-05-31T23:06:52.233Z,14.18
2019-05-31T23:09:20.655Z,14.24
2019-05-31T23:11:49.095Z,14.27
2019-05-31T23:14:17.513Z,14.27
2019-05-31T23:16:47.199Z,14.26
2019-05-31T23:19:15.712Z,14.26
2019-05-31T23:21:44.149Z,14.28
2019-05-31T23:24:12.562Z,14.27
2019-05-31T23:26:41.687Z,14.29
2019-05-31T23:29:10.356Z,14.32
2019-05-31T23:31:38.989Z,14.31
2019-05-31T23:34:07.478Z,14.31
2019-05-31T23:36:36.430Z,14.30
2019-05-31T23:39:06.562Z,14.28
2019-05-31T23:41:36.200Z,14.25
2019-05-31T23:44:04.759Z,14.26
2019-05-31T23:46:33.167Z,14.26
2019-05-31T23:49:01.600Z,14.28
2019-05-31T23:51:30.020Z,14.31
2019-05-31T23:53:58.455Z,14.35
2019-05-31T23:56:26.874Z,14.39
2019-05-31T23:58:55.316Z,14.37
